Ana Sayfa
METAR-TAF:

METAR-TAF

Havaalanları :

Nome, Alaska, Amerika Birleşik Devletleri

Enlem: 64-30-43N, Boylam: 165-26-42W, yükseklik: 11 m

Güncel hava durumu gözlemi

Rapor saat 07:53 UTC de 28 dakika önce yapıldı.
Rüzgar batıdan 9 kt
Sıcaklık 4°C
Nem 87%
Basınç 1026 hPa
Görüş mesafesi: 16.1 km
Açık gökyüzü

METAR: PAOM 150753Z AUTO 27009KT 10SM CLR 04/02 A3031 RMK AO2 SLP264 T00390017 TSNO

Saat: 00:21 (08:21 UTC)

Tahmin

Rapor saat 05:20 UTC de 3 saat ve 1 dakika önce yapıldı.
Ayın 15'si saat 06 UTC'den ayın 16'si saat 06 UTC'ye kadar geçerli Tahmin
Rüzgar batı/güneybatıdan 8 kt
Görüş mesafesi: 10 km
1200 ft yükseklikte çok bulutlu
Ayın 15'si saat 1800 UTC'den
Rüzgar batı/güneybatıdan 2 kt
Görüş mesafesi: 10 km
25000 ft yükseklikte az bulutlu

TAF: PAOM 150520Z 1506/1606 25008KT P6SM OVC012 FM151800 25002KT P6SM FEW250

4.000'den fazla havaalanı için hava durumu gözlemleri ve tahminleri (METAR ve TAF raporları).

Kullanılabilir istasyonlar harita üzerinde sarı ve kırmızı noktalarla gösterilir.

İstasyonun adını görmek için fareyi noktanın üzerinde gezdirin.

Sonrasında hava gözlem ve tahminlerini görmek için tıklayın.

Haritayı değiştirmek için: yaklaştırmak için siyah artı işaretli yeşil düğmeye ve uzaklaştırmak için de eksi işaretli düğmeye hızla tıklayın; bitişik haritalar için yeşil okları kullanın.


METAR-TAF: